createdAt,value
2023-04-12T00:00:45.040Z,51.81
2023-04-12T00:03:54.640Z,51.95
2023-04-12T00:07:00.968Z,52.08
2023-04-12T00:10:06.833Z,52.18
2023-04-12T00:13:14.842Z,52.35
2023-04-12T00:16:23.496Z,52.45
2023-04-12T00:19:32.719Z,52.55
2023-04-12T00:22:39.534Z,52.73
2023-04-12T00:25:46.564Z,52.88
2023-04-12T00:28:52.755Z,52.95
2023-04-12T00:31:59.922Z,53.11
2023-04-12T00:35:05.902Z,53.28
2023-04-12T00:38:14.717Z,53.40
2023-04-12T00:41:22.127Z,53.55
2023-04-12T00:44:30.194Z,53.63
2023-04-12T00:47:36.414Z,53.73
2023-04-12T00:50:41.544Z,53.90
2023-04-12T00:53:47.362Z,54.10
2023-04-12T00:56:54.506Z,54.27
2023-04-12T00:59:59.649Z,54.42
2023-04-12T01:03:08.639Z,54.60
2023-04-12T01:06:25.072Z,54.77
2023-04-12T01:09:47.216Z,54.93
2023-04-12T01:13:26.097Z,55.08
2023-04-12T01:16:58.989Z,55.21
2023-04-12T01:20:24.505Z,55.42
2023-04-12T01:24:10.652Z,55.55
2023-04-12T01:27:18.334Z,55.74
2023-04-12T01:30:26.520Z,55.98
2023-04-12T01:33:34.557Z,56.03
2023-04-12T01:36:41.294Z,56.18
2023-04-12T01:39:47.645Z,56.38
2023-04-12T01:42:54.128Z,56.55
2023-04-12T01:45:59.309Z,56.73
2023-04-12T01:49:07.224Z,56.89
2023-04-12T01:52:21.313Z,57.02
2023-04-12T01:55:26.442Z,57.17
2023-04-12T01:58:35.501Z,57.27
2023-04-12T02:01:42.251Z,57.40
2023-04-12T02:04:50.993Z,57.56
2023-04-12T02:07:58.492Z,57.66
2023-04-12T02:11:04.979Z,57.80
2023-04-12T02:14:10.604Z,57.93
2023-04-12T02:17:17.390Z,58.10
2023-04-12T02:20:19.496Z,58.21
2023-04-12T02:23:12.097Z,58.29
2023-04-12T02:26:18.957Z,58.36
2023-04-12T02:29:25.816Z,58.47
2023-04-12T02:32:31.887Z,58.60
2023-04-12T02:35:38.368Z,58.68
2023-04-12T02:38:46.225Z,58.79
2023-04-12T02:41:51.328Z,58.90
2023-04-12T02:44:58.330Z,59.01
2023-04-12T02:48:04.766Z,59.06
2023-04-12T02:51:11.751Z,59.12
2023-04-12T02:54:19.753Z,59.23
2023-04-12T02:57:28.875Z,59.31
2023-04-12T03:00:38.817Z,59.46
2023-04-12T03:03:46.448Z,59.59
2023-04-12T03:07:00.714Z,59.66
2023-04-12T03:10:08.312Z,59.80
2023-04-12T03:13:16.068Z,59.89
2023-04-12T03:16:42.191Z,59.97
2023-04-12T03:19:50.356Z,60.06
2023-04-12T03:22:56.803Z,60.11
2023-04-12T03:26:04.007Z,60.21
2023-04-12T03:29:15.616Z,60.29
2023-04-12T03:32:24.119Z,60.38
2023-04-12T03:35:32.611Z,60.46
2023-04-12T03:38:40.233Z,60.57
2023-04-12T03:41:47.154Z,60.64
2023-04-12T03:44:56.285Z,60.73
2023-04-12T03:48:01.893Z,60.80
2023-04-12T03:51:10.313Z,60.91
2023-04-12T03:54:15.538Z,60.90
2023-04-12T03:57:24.277Z,61.07
2023-04-12T04:00:31.228Z,61.13
2023-04-12T04:03:42.225Z,61.19
2023-04-12T04:06:55.604Z,61.31
2023-04-12T04:10:05.323Z,61.40
2023-04-12T04:13:12.047Z,61.49
2023-04-12T04:16:22.105Z,61.68
2023-04-12T04:19:28.451Z,61.74
2023-04-12T04:22:37.689Z,61.82
2023-04-12T04:25:46.086Z,61.90
2023-04-12T04:28:54.265Z,62.02
2023-04-12T04:32:04.696Z,62.10
2023-04-12T04:35:12.140Z,62.15
2023-04-12T04:38:22.510Z,62.25
2023-04-12T04:41:31.573Z,62.38
2023-04-12T04:44:37.354Z,62.42
2023-04-12T04:47:43.165Z,62.50
2023-04-12T04:50:51.996Z,62.60
2023-04-12T04:53:58.321Z,62.69
2023-04-12T04:57:07.999Z,62.74
2023-04-12T05:00:19.758Z,62.83
2023-04-12T05:03:29.532Z,62.94
2023-04-12T05:06:34.584Z,63.04
2023-04-12T05:09:41.248Z,63.10
2023-04-12T05:12:48.424Z,63.12
2023-04-12T05:15:56.264Z,63.22
2023-04-12T05:19:03.908Z,63.32
2023-04-12T05:22:10.421Z,63.34
2023-04-12T05:25:16.467Z,63.41
2023-04-12T05:28:27.481Z,63.49
2023-04-12T05:31:35.324Z,63.52
2023-04-12T05:34:44.497Z,63.59
2023-04-12T05:37:51.257Z,63.68
2023-04-12T05:40:57.763Z,63.75
2023-04-12T05:44:05.370Z,63.75
2023-04-12T05:47:11.764Z,63.83
2023-04-12T05:50:21.106Z,63.81
2023-04-12T05:53:28.143Z,63.97
2023-04-12T05:56:35.278Z,64.08
2023-04-12T05:59:42.257Z,64.20
2023-04-12T06:02:49.708Z,64.27
2023-04-12T06:05:58.792Z,64.41
2023-04-12T06:09:07.986Z,64.46
2023-04-12T06:12:15.725Z,64.53
2023-04-12T06:15:23.269Z,64.68
2023-04-12T06:18:32.514Z,64.70
2023-04-12T06:21:39.686Z,64.76
2023-04-12T06:24:52.110Z,64.83
2023-04-12T06:27:58.116Z,64.99
2023-04-12T06:31:05.927Z,65.06
2023-04-12T06:34:12.630Z,65.12
2023-04-12T06:37:18.089Z,65.11
2023-04-12T06:40:24.009Z,65.16
2023-04-12T06:43:32.385Z,65.10
2023-04-12T06:46:45.184Z,65.15
2023-04-12T06:49:55.966Z,65.12
2023-04-12T06:53:01.826Z,65.26
2023-04-12T06:56:07.176Z,65.37
2023-04-12T06:59:12.333Z,65.47
2023-04-12T07:02:18.279Z,65.53
2023-04-12T07:05:24.687Z,65.59
2023-04-12T07:08:33.409Z,65.61
2023-04-12T07:11:38.804Z,65.68
2023-04-12T07:14:45.373Z,65.73
2023-04-12T07:17:50.608Z,65.81
2023-04-12T07:20:58.868Z,65.82
2023-04-12T07:24:04.861Z,65.72
2023-04-12T07:27:10.655Z,65.87
2023-04-12T07:30:16.453Z,65.99
2023-04-12T07:33:23.692Z,66.00
2023-04-12T07:36:35.144Z,66.04
2023-04-12T07:39:41.565Z,66.04
2023-04-12T07:42:47.897Z,66.15
2023-04-12T07:45:53.526Z,66.02
2023-04-12T07:48:59.994Z,66.15
2023-04-12T07:52:07.352Z,66.17
2023-04-12T07:55:13.816Z,66.29
2023-04-12T07:58:21.021Z,66.42
2023-04-12T08:01:29.291Z,66.65
2023-04-12T08:04:40.356Z,66.78
2023-04-12T08:07:47.226Z,66.78
2023-04-12T08:10:56.579Z,66.92
2023-04-12T08:14:03.694Z,67.06
2023-04-12T08:17:11.180Z,66.91
2023-04-12T08:20:18.451Z,66.82
2023-04-12T08:23:26.566Z,66.88
2023-04-12T08:26:28.768Z,67.13
2023-04-12T08:29:35.380Z,67.22
2023-04-12T08:32:41.591Z,67.24
2023-04-12T08:35:50.802Z,67.37
2023-04-12T08:38:59.060Z,67.33
2023-04-12T08:42:05.462Z,67.40
2023-04-12T08:45:14.134Z,67.45
2023-04-12T08:48:20.172Z,67.60
2023-04-12T08:51:33.923Z,67.70
2023-04-12T08:54:41.153Z,67.75
2023-04-12T08:57:49.192Z,67.87
2023-04-12T09:00:56.169Z,67.86
2023-04-12T09:04:02.426Z,67.84
2023-04-12T09:07:12.144Z,67.84
2023-04-12T09:10:18.183Z,67.78
2023-04-12T09:13:26.094Z,67.94
2023-04-12T09:16:32.897Z,68.03
2023-04-12T09:19:49.750Z,68.17
2023-04-12T09:22:57.545Z,68.28
2023-04-12T09:26:04.665Z,68.36
2023-04-12T09:29:10.653Z,68.47
2023-04-12T09:32:22.305Z,68.54
2023-04-12T09:35:31.283Z,68.62
2023-04-12T09:38:38.110Z,68.67
2023-04-12T09:41:44.198Z,68.73
2023-04-12T09:44:51.494Z,68.77
2023-04-12T09:47:58.044Z,68.77
2023-04-12T09:51:03.844Z,68.77
2023-04-12T09:54:12.964Z,68.88
2023-04-12T09:57:22.340Z,68.92
2023-04-12T10:00:33.835Z,68.94
2023-04-12T10:03:42.974Z,68.93
2023-04-12T10:06:50.842Z,69.07
2023-04-12T10:09:59.176Z,69.17
2023-04-12T10:13:05.265Z,69.16
2023-04-12T10:16:12.189Z,69.19
2023-04-12T10:19:21.055Z,69.18
2023-04-12T10:22:28.416Z,69.30
2023-04-12T10:25:47.735Z,69.30
2023-04-12T10:29:02.099Z,69.28
2023-04-12T10:32:13.959Z,69.24
2023-04-12T10:35:26.012Z,69.43
2023-04-12T10:38:36.909Z,69.56
2023-04-12T10:41:44.983Z,69.65
2023-04-12T10:44:54.050Z,69.59
2023-04-12T10:48:10.701Z,69.54
2023-04-12T10:51:35.308Z,69.62
2023-04-12T10:54:45.733Z,69.75
2023-04-12T10:58:01.730Z,69.89
2023-04-12T11:01:20.493Z,69.87
2023-04-12T11:04:34.026Z,70.04
2023-04-12T11:07:44.986Z,70.14
2023-04-12T11:11:05.432Z,70.29
2023-04-12T11:14:13.069Z,70.34
2023-04-12T11:17:31.803Z,70.28
2023-04-12T11:20:39.710Z,70.32
2023-04-12T11:23:46.412Z,70.44
2023-04-12T11:26:52.217Z,70.39
2023-04-12T11:30:01.489Z,70.36
2023-04-12T11:33:09.298Z,70.42
2023-04-12T11:36:17.701Z,70.34
2023-04-12T11:39:24.913Z,70.38
2023-04-12T11:42:31.407Z,70.43
2023-04-12T11:45:41.276Z,70.56
2023-04-12T11:48:46.789Z,70.56
2023-04-12T11:51:52.772Z,70.60
2023-04-12T11:55:03.285Z,70.78
2023-04-12T11:58:11.959Z,70.71
2023-04-12T12:01:20.194Z,70.77
2023-04-12T12:04:26.418Z,70.84
2023-04-12T12:07:33.107Z,70.88
2023-04-12T12:10:52.353Z,70.63
2023-04-12T12:14:07.610Z,70.80
2023-04-12T12:17:13.849Z,71.03
2023-04-12T12:20:21.027Z,71.20
2023-04-12T12:23:27.977Z,71.24
2023-04-12T12:26:41.954Z,71.33
2023-04-12T12:29:52.628Z,71.38
2023-04-12T12:32:58.767Z,71.47
2023-04-12T12:36:13.095Z,71.56
2023-04-12T12:39:25.179Z,71.55
2023-04-12T12:42:32.011Z,71.54
2023-04-12T12:45:39.067Z,71.47
2023-04-12T12:48:45.342Z,71.32
2023-04-12T12:51:53.290Z,71.38
2023-04-12T12:54:58.332Z,71.44
2023-04-12T12:58:08.793Z,71.52
2023-04-12T13:01:14.521Z,71.48
2023-04-12T13:04:21.150Z,71.49
2023-04-12T13:07:28.892Z,71.62
2023-04-12T13:10:35.981Z,71.59
2023-04-12T13:13:42.076Z,71.60
2023-04-12T13:16:48.359Z,71.71
2023-04-12T13:19:55.365Z,71.67
2023-04-12T13:23:01.298Z,71.72
2023-04-12T13:26:08.922Z,71.90
2023-04-12T13:29:18.388Z,71.98
2023-04-12T13:32:25.569Z,72.12
2023-04-12T13:35:33.521Z,72.19
2023-04-12T13:38:38.889Z,72.15
2023-04-12T13:41:45.260Z,72.13
2023-04-12T13:44:51.099Z,72.16
2023-04-12T13:47:58.739Z,72.07
2023-04-12T13:51:07.138Z,72.02
2023-04-12T13:54:13.460Z,72.13
2023-04-12T13:57:18.832Z,72.13
2023-04-12T14:00:26.856Z,72.21
2023-04-12T14:03:35.145Z,72.26
2023-04-12T14:06:41.008Z,72.35
2023-04-12T14:09:49.899Z,72.41
2023-04-12T14:12:55.579Z,72.49
2023-04-12T14:16:01.706Z,72.43
2023-04-12T14:19:08.179Z,72.45
2023-04-12T14:22:14.258Z,72.41
2023-04-12T14:25:22.032Z,72.45
2023-04-12T14:28:30.139Z,72.47
2023-04-12T14:31:36.481Z,72.46
2023-04-12T14:34:45.250Z,72.54
2023-04-12T14:37:51.975Z,72.61
2023-04-12T14:41:00.747Z,72.63
2023-04-12T14:44:06.859Z,72.65
2023-04-12T14:47:13.847Z,72.57
2023-04-12T14:50:14.275Z,72.60
2023-04-12T14:53:20.379Z,72.59
2023-04-12T14:56:48.863Z,72.53
2023-04-12T14:59:48.174Z,72.41
2023-04-12T15:02:57.145Z,72.57
2023-04-12T15:06:04.436Z,72.61
2023-04-12T15:09:11.024Z,72.57
2023-04-12T15:12:17.079Z,72.67
2023-04-12T15:15:24.040Z,72.70
2023-04-12T15:18:29.859Z,72.70
2023-04-12T15:21:36.718Z,72.72
2023-04-12T15:24:42.759Z,72.72
2023-04-12T15:27:51.628Z,72.71
2023-04-12T15:30:57.700Z,72.72
2023-04-12T15:34:05.285Z,72.74
2023-04-12T15:37:12.806Z,72.78
2023-04-12T15:40:24.636Z,72.82
2023-04-12T15:43:32.214Z,72.85
2023-04-12T15:46:39.824Z,72.88
2023-04-12T15:49:47.991Z,72.93
2023-04-12T15:52:54.696Z,72.86
2023-04-12T15:56:04.063Z,72.84
2023-04-12T15:59:10.749Z,72.91
2023-04-12T16:02:16.463Z,72.92
2023-04-12T16:05:24.085Z,72.96
2023-04-12T16:08:30.634Z,72.97
2023-04-12T16:11:40.778Z,73.00
2023-04-12T16:14:47.226Z,73.01
2023-04-12T16:17:56.382Z,72.95
2023-04-12T16:21:05.902Z,73.01
2023-04-12T16:24:13.840Z,73.03
2023-04-12T16:27:23.500Z,73.09
2023-04-12T16:30:29.613Z,73.02
2023-04-12T16:33:37.202Z,73.09
2023-04-12T16:36:46.583Z,73.07
2023-04-12T16:39:52.113Z,73.09
2023-04-12T16:42:59.131Z,73.12
2023-04-12T16:46:05.626Z,73.14
2023-04-12T16:49:12.144Z,73.16
2023-04-12T16:52:17.153Z,73.17
2023-04-12T16:55:24.377Z,73.15
2023-04-12T16:58:33.364Z,73.17
2023-04-12T17:01:41.759Z,73.12
2023-04-12T17:04:48.383Z,73.07
2023-04-12T17:07:55.620Z,73.09
2023-04-12T17:11:03.867Z,73.09
2023-04-12T17:14:09.274Z,73.00
2023-04-12T17:17:16.212Z,72.99
2023-04-12T17:20:23.597Z,72.91
2023-04-12T17:23:31.892Z,72.77
2023-04-12T17:26:39.846Z,72.88
2023-04-12T17:29:47.739Z,72.87
2023-04-12T17:32:55.049Z,73.00
2023-04-12T17:36:03.079Z,73.12
2023-04-12T17:39:12.087Z,73.15
2023-04-12T17:42:20.895Z,73.23
2023-04-12T17:45:29.323Z,73.26
2023-04-12T17:48:37.151Z,73.23
2023-04-12T17:51:44.161Z,73.17
2023-04-12T17:54:51.682Z,73.21
2023-04-12T17:57:59.036Z,73.21
2023-04-12T18:01:07.684Z,73.24
2023-04-12T18:04:13.855Z,73.25
2023-04-12T18:07:22.002Z,73.16
2023-04-12T18:10:30.078Z,73.09
2023-04-12T18:13:36.591Z,73.17
2023-04-12T18:16:43.594Z,73.23
2023-04-12T18:19:51.129Z,73.23
2023-04-12T18:22:57.722Z,73.21
2023-04-12T18:26:04.177Z,73.19
2023-04-12T18:29:09.566Z,73.23
2023-04-12T18:32:15.943Z,73.30
2023-04-12T18:35:23.794Z,73.36
2023-04-12T18:38:30.469Z,73.24
2023-04-12T18:41:38.307Z,73.24
2023-04-12T18:44:46.514Z,73.31
2023-04-12T18:47:53.740Z,73.39
2023-04-12T18:51:04.633Z,73.39
2023-04-12T18:54:11.274Z,73.35
2023-04-12T18:57:20.767Z,73.33
2023-04-12T19:00:29.670Z,73.38
2023-04-12T19:03:36.104Z,73.39
2023-04-12T19:06:43.106Z,73.44
2023-04-12T19:09:49.304Z,73.47
2023-04-12T19:12:55.655Z,73.50
2023-04-12T19:16:08.143Z,73.52
2023-04-12T19:19:16.439Z,73.59
2023-04-12T19:22:22.797Z,73.61
2023-04-12T19:25:32.874Z,73.64
2023-04-12T19:28:39.311Z,73.66
2023-04-12T19:31:46.373Z,73.67
2023-04-12T19:34:54.074Z,73.66
2023-04-12T19:38:02.500Z,73.63
2023-04-12T19:41:09.085Z,73.62
2023-04-12T19:44:14.794Z,73.60
2023-04-12T19:47:21.334Z,73.60
2023-04-12T19:50:30.737Z,73.59
2023-04-12T19:53:37.872Z,73.57
2023-04-12T19:56:46.940Z,73.58
2023-04-12T19:59:53.027Z,73.59
2023-04-12T20:03:00.209Z,73.52
2023-04-12T20:06:08.976Z,73.51
2023-04-12T20:09:14.575Z,73.55
2023-04-12T20:12:21.385Z,73.53
2023-04-12T20:15:28.505Z,73.57
2023-04-12T20:18:35.437Z,73.59
2023-04-12T20:21:41.392Z,73.61
2023-04-12T20:24:48.063Z,73.63
2023-04-12T20:27:57.774Z,73.60
2023-04-12T20:31:03.689Z,73.65
2023-04-12T20:34:10.185Z,73.63
2023-04-12T20:37:15.762Z,73.60
2023-04-12T20:40:21.896Z,73.65
2023-04-12T20:43:29.134Z,73.67
2023-04-12T20:46:36.800Z,73.53
2023-04-12T20:49:44.192Z,73.44
2023-04-12T20:52:50.713Z,73.53
2023-04-12T20:55:57.425Z,73.59
2023-04-12T20:59:03.444Z,73.62
2023-04-12T21:03:13.648Z,73.73
2023-04-12T21:06:20.133Z,73.77
2023-04-12T21:09:26.320Z,73.83
2023-04-12T21:12:33.072Z,73.91
2023-04-12T21:15:40.799Z,73.86
2023-04-12T21:18:51.437Z,73.90
2023-04-12T21:21:58.411Z,73.93
2023-04-12T21:25:05.484Z,73.81
2023-04-12T21:28:13.295Z,73.75
2023-04-12T21:31:23.853Z,73.62
2023-04-12T21:34:29.793Z,73.67
2023-04-12T21:37:36.526Z,73.81
2023-04-12T21:40:41.383Z,73.90
2023-04-12T21:43:49.520Z,73.87
2023-04-12T21:46:55.335Z,73.87
2023-04-12T21:50:01.704Z,73.93
2023-04-12T21:53:08.843Z,73.92
2023-04-12T21:56:15.026Z,73.94
2023-04-12T21:59:21.820Z,73.94
2023-04-12T22:02:28.794Z,73.88
2023-04-12T22:05:37.859Z,73.89
2023-04-12T22:08:44.570Z,73.87
2023-04-12T22:11:50.035Z,73.90
2023-04-12T22:14:56.922Z,73.91
2023-04-12T22:18:03.249Z,73.85
2023-04-12T22:21:11.013Z,73.86
2023-04-12T22:24:16.982Z,73.85
2023-04-12T22:27:24.038Z,73.88
2023-04-12T22:30:30.223Z,73.89
2023-04-12T22:33:35.979Z,73.89
2023-04-12T22:36:43.904Z,73.90
2023-04-12T22:39:50.849Z,73.88
2023-04-12T22:42:57.674Z,73.84
2023-04-12T22:46:04.368Z,73.82
2023-04-12T22:49:10.159Z,73.81
2023-04-12T22:52:16.158Z,73.79
2023-04-12T22:55:25.210Z,73.73
2023-04-12T22:58:32.268Z,73.70
2023-04-12T23:01:38.532Z,73.68
2023-04-12T23:04:46.326Z,73.60
2023-04-12T23:07:51.763Z,73.58
2023-04-12T23:10:58.986Z,73.50
2023-04-12T23:14:06.479Z,73.50
2023-04-12T23:17:14.145Z,73.54
2023-04-12T23:20:22.393Z,73.46
2023-04-12T23:23:30.757Z,73.43
2023-04-12T23:26:36.399Z,73.52
2023-04-12T23:29:41.463Z,73.57
2023-04-12T23:32:47.282Z,73.60
2023-04-12T23:35:58.854Z,73.52
2023-04-12T23:39:06.664Z,73.52
2023-04-12T23:42:13.006Z,73.53
2023-04-12T23:45:19.881Z,73.59
2023-04-12T23:48:26.831Z,73.61
2023-04-12T23:51:34.765Z,73.56
2023-04-12T23:54:41.330Z,73.54
2023-04-12T23:57:46.577Z,73.57
